KCQX

Details ICAO KCQX
Name Chatham Muni
Region United States
Timezone America/New_York (UTC-4.0)
Plans Departing 3
Arriving 9
Stats Elevation 68 ft / 21 m (AMSL)
Location 41.688400° -69.989522°
Runways 1
Magnetic Variation 14.868° W
Sunrise 2018-05-22 09:15:36 UTC / 2018-05-22 05:15:36 Local
Sunset 2018-05-23 00:00:32 UTC / 2018-05-22 20:00:32 Local
Advertisement - Login to hide

Runways

ID Width Length Bearing (true) Bearing (mag) Surface Threshold Offset Overrun Length
06 100 ft / 30 m 3,000 ft / 915 m 43.80° 58.67° Asphalt 0 ft / 0 m 0 ft / 0 m
24 100 ft / 30 m 3,000 ft / 915 m 223.81° 238.68° Asphalt 0 ft / 0 m 0 ft / 0 m

Map

Weather


0- 5 10 15 20 25 30 35+ Temperature / ° C

Clouds and Precipitation
Forecast for 2018-05-23 00:00 UTC. Updated 21 minutes ago

Ground ~20,000 ft ~40,000 ft Winds

METAR

KCQX 222252Z AUTO 23003KT 10SM -RA OVC110 14/10 A3008 RMK AO2 RAE2157B37 SLP188 P0000 T01390100 TSNO

TAF

Not found

Frequencies

Recorded 135.87 MHz ASOS
Clearance 127.30 MHz CLNC DEL
Unicom 122.80 MHz CTAF/UNICOM
Approach 118.20 MHz CAPE APP/DEP
Warning: Do not use this data for real-world aviation or navigation. No guarantee of current accuracy is given.